Time;durP1;ratioP1;P1;durP2;ratioP2;P2;SDS_P1;SDS_P2;PMS_P1;PMS_P2;Temp;Humidity;BMP_temperature;BMP_pressure;BME280_temperature;BME280_humidity;BME280_pressure;Samples;Min_cycle;Max_cycle;Signal;HPM_P1;HPM_P2
2023/12/14 00:00:35;;;;;;;26.83;11.87;;;;;;;6.62;100.00;100705.84;6250626;22;20008;-89
2023/12/14 00:03:05;;;;;;;26.67;11.63;;;;;;;6.58;100.00;100695.63;6250201;22;20007;-89
2023/12/14 00:05:41;;;;;;;27.08;11.43;;;;;;;6.58;100.00;100709.94;6250908;22;20023;-89
2023/12/14 00:08:06;;;;;;;23.13;10.50;;;;;;;6.52;100.00;100704.50;6250564;22;20430;-89
2023/12/14 00:10:34;;;;;;;21.03;11.33;;;;;;;6.44;100.00;100705.47;6249696;22;20057;-89
2023/12/14 00:13:07;;;;;;;23.40;10.63;;;;;;;6.43;100.00;100719.97;6251202;22;20091;-89
2023/12/14 00:15:33;;;;;;;19.08;10.00;;;;;;;6.41;100.00;100712.06;6250595;22;20012;-89
2023/12/14 00:18:00;;;;;;;20.70;10.50;;;;;;;6.43;100.00;100726.16;6249707;22;20015;-89
2023/12/14 00:20:26;;;;;;;20.35;10.52;;;;;;;6.38;100.00;100735.84;6249683;22;20012;-89
2023/12/14 00:22:54;;;;;;;19.43;10.10;;;;;;;6.37;100.00;100742.28;6249713;22;20014;-89
2023/12/14 00:25:27;;;;;;;22.98;11.48;;;;;;;6.33;100.00;100744.50;6250087;22;20047;-89
2023/12/14 00:27:55;;;;;;;22.40;10.65;;;;;;;6.22;100.00;100745.84;6251799;22;20057;-89
2023/12/14 00:30:21;;;;;;;19.38;9.55;;;;;;;6.18;100.00;100746.41;6224843;22;20418;-89
2023/12/14 00:32:46;;;;;;;20.07;9.57;;;;;;;6.14;100.00;100762.97;6277861;22;20070;-89
2023/12/14 00:35:19;;;;;;;22.15;10.40;;;;;;;6.14;100.00;100780.97;6250422;22;20370;-89
2023/12/14 00:37:45;;;;;;;23.70;10.97;;;;;;;6.06;100.00;100781.91;6250920;22;20011;-88
2023/12/14 00:40:41;;;;;;;;;;;;;;;;;;;;;
2023/12/14 00:43:09;;;;;;;23.63;11.13;;;;;;;6.07;100.00;100801.63;6279650;22;20370;-89
2023/12/14 00:45:41;;;;;;;25.50;11.80;;;;;;;5.97;100.00;100804.59;6278933;22;20422;-89
2023/12/14 00:48:09;;;;;;;24.85;10.80;;;;;;;5.83;100.00;100802.69;6252094;22;20036;-89
2023/12/14 00:50:39;;;;;;;25.88;11.32;;;;;;;5.79;100.00;100805.75;6252144;22;20039;-88
2023/12/14 00:53:07;;;;;;;26.58;12.00;;;;;;;5.75;100.00;100811.69;6202756;22;20020;-88
2023/12/14 00:55:34;;;;;;;25.10;11.60;;;;;;;5.64;100.00;100813.00;6251893;22;20078;-89
2023/12/14 00:58:25;;;;;;;24.70;10.60;;;;;;;5.66;100.00;100821.72;6252015;22;20014;-88
2023/12/14 01:00:58;;;;;;;30.30;11.95;;;;;;;5.65;100.00;100811.13;6251787;22;20022;-88
2023/12/14 01:03:25;;;;;;;28.83;12.30;;;;;;;5.66;100.00;100823.56;6279876;22;20426;-88
2023/12/14 01:05:54;;;;;;;28.95;11.38;;;;;;;5.68;100.00;100835.00;6252384;22;20011;-89
2023/12/14 01:08:19;;;;;;;27.30;11.30;;;;;;;5.62;100.00;100823.09;6252111;22;20012;-89
2023/12/14 01:10:48;;;;;;;26.88;12.15;;;;;;;5.56;100.00;100827.34;6253161;22;20012;-89
2023/12/14 01:13:22;;;;;;;29.20;11.90;;;;;;;5.59;100.00;100839.59;6253331;22;20019;-89
2023/12/14 01:15:48;;;;;;;25.55;10.60;;;;;;;5.47;100.00;100843.78;6252926;22;20007;-89
2023/12/14 01:18:17;;;;;;;26.00;10.55;;;;;;;5.37;100.00;100852.09;6279397;22;20010;-89
2023/12/14 01:20:55;;;;;;;;;;;;;;;;;;;;;
2023/12/14 01:23:23;;;;;;;22.23;10.63;;;;;;;5.34;100.00;100868.59;6279722;22;20082;-88
2023/12/14 01:25:49;;;;;;;23.30;10.05;;;;;;;5.31;100.00;100866.25;6226560;22;20010;-88
2023/12/14 01:28:19;;;;;;;21.17;9.95;;;;;;;5.24;100.00;100875.06;6251577;22;20314;-88
2023/12/14 01:30:47;;;;;;;20.15;9.60;;;;;;;5.25;100.00;100882.09;6226622;22;20012;-88
2023/12/14 01:33:20;;;;;;;20.37;8.90;;;;;;;5.24;100.00;100890.34;6251715;22;20442;-88
2023/12/14 01:35:58;;;;;;;19.85;9.70;;;;;;;5.18;100.00;100891.94;6227169;22;20016;-88
2023/12/14 01:38:44;;;;;;;19.88;9.68;;;;;;;5.21;100.00;100902.31;6252081;22;20003;-89
2023/12/14 01:41:09;;;;;;;19.98;9.63;;;;;;;5.21;100.00;100902.31;6251609;22;20046;-89
2023/12/14 01:43:34;;;;;;;19.67;8.97;;;;;;;5.19;100.00;100904.34;6252681;22;20011;-89
2023/12/14 01:46:03;;;;;;;19.07;8.83;;;;;;;5.25;100.00;100913.56;6251879;22;20039;-89
2023/12/14 01:48:28;;;;;;;19.13;10.00;;;;;;;5.18;100.00;100908.06;6251161;22;20038;-89
2023/12/14 01:51:02;;;;;;;21.50;9.33;;;;;;;5.16;100.00;100918.16;6252219;22;20441;-89
2023/12/14 01:53:28;;;;;;;17.08;9.20;;;;;;;5.14;100.00;100922.03;6252559;22;20034;-88
2023/12/14 01:55:57;;;;;;;16.70;9.13;;;;;;;5.16;100.00;100922.69;6252048;22;20421;-88
2023/12/14 01:58:30;;;;;;;16.42;8.70;;;;;;;5.15;100.00;100937.16;6278936;22;20008;-88
2023/12/14 02:01:44;;;;;;;19.88;9.63;;;;;;;5.20;100.00;100940.16;6278385;22;20000;-89
2023/12/14 02:04:16;;;;;;;19.52;8.82;;;;;;;5.09;100.00;100941.38;6245558;22;20019;-89
2023/12/14 02:06:42;;;;;;;17.35;8.80;;;;;;;5.02;100.00;100948.47;6251699;22;20011;-88
2023/12/14 02:09:10;;;;;;;18.70;8.93;;;;;;;4.99;100.00;100949.69;6251479;22;20337;-88
2023/12/14 02:11:45;;;;;;;17.30;8.35;;;;;;;5.02;100.00;100960.09;6251077;22;20015;-88
2023/12/14 02:14:10;;;;;;;19.52;9.18;;;;;;;4.99;100.00;100960.44;6251850;22;20008;-89
2023/12/14 02:16:58;;;;;;;19.67;8.97;;;;;;;5.03;100.00;100977.06;6251614;22;20015;-89
2023/12/14 02:19:22;;;;;;;18.60;8.90;;;;;;;5.00;100.00;100978.22;6275492;22;20015;-89
2023/12/14 02:21:50;;;;;;;17.13;9.00;;;;;;;5.00;100.00;100982.78;6278368;22;20004;-89
2023/12/14 02:24:21;;;;;;;18.10;8.63;;;;;;;4.94;100.00;100981.63;6251433;22;20065;-89
2023/12/14 02:26:54;;;;;;;19.00;9.40;;;;;;;4.94;100.00;100984.31;6251309;22;20018;-89
2023/12/14 02:29:21;;;;;;;18.13;8.15;;;;;;;4.95;100.00;100991.38;6250883;22;20095;-88
2023/12/14 02:31:47;;;;;;;16.47;8.40;;;;;;;4.98;100.00;100995.59;6251011;22;20020;-89
2023/12/14 02:34:13;;;;;;;18.90;8.82;;;;;;;4.96;100.00;100989.53;6251707;22;20023;-89
2023/12/14 02:36:40;;;;;;;17.00;8.67;;;;;;;5.01;100.00;100995.22;6251204;22;20422;-89
2023/12/14 02:39:16;;;;;;;20.10;10.27;;;;;;;4.97;100.00;101001.97;6251068;22;20041;-89
2023/12/14 02:41:46;;;;;;;20.20;9.68;;;;;;;4.92;100.00;101003.31;6251091;22;20008;-89
2023/12/14 02:44:24;;;;;;;;;;;;;;;;;;;;;
2023/12/14 02:46:54;;;;;;;24.00;11.15;;;;;;;4.93;100.00;101031.03;6278942;22;20078;-88
2023/12/14 02:49:20;;;;;;;19.73;10.07;;;;;;;4.89;100.00;101021.66;6227191;22;20085;-89
2023/12/14 02:51:46;;;;;;;19.17;9.82;;;;;;;4.89;100.00;101030.56;6251304;22;20008;-88
2023/12/14 02:54:14;;;;;;;20.07;9.23;;;;;;;4.89;100.00;101041.31;6278929;22;20007;-89
2023/12/14 02:56:44;;;;;;;20.52;9.80;;;;;;;4.89;100.00;101038.63;6252151;22;20083;-89
2023/12/14 02:59:20;;;;;;;;;;;;;;;;;;;;;
2023/12/14 03:01:46;;;;;;;19.80;8.77;;;;;;;4.95;100.00;101047.84;6279132;22;20429;-89
2023/12/14 03:07:02;;;;;;;20.30;9.95;;;;;;;4.94;100.00;101048.84;6278012;22;20007;-89
2023/12/14 03:09:33;;;;;;;18.23;9.48;;;;;;;4.86;100.00;101055.09;6251181;22;20034;-89
2023/12/14 03:12:02;;;;;;;18.10;9.27;;;;;;;4.88;100.00;101068.38;6226495;22;20008;-90
2023/12/14 03:14:32;;;;;;;15.98;8.60;;;;;;;4.80;100.00;101058.50;6251337;22;20004;-89
2023/12/14 03:17:00;;;;;;;19.25;10.27;;;;;;;4.80;100.00;101071.06;6251031;22;20061;-89
2023/12/14 03:19:29;;;;;;;18.40;8.93;;;;;;;4.76;100.00;101065.22;6225884;22;20015;-89
2023/12/14 03:21:55;;;;;;;20.00;9.70;;;;;;;4.81;100.00;101070.06;6250678;22;20008;-89
2023/12/14 03:24:23;;;;;;;19.60;9.77;;;;;;;4.74;100.00;101064.56;6250414;22;20015;-89
2023/12/14 03:26:50;;;;;;;16.70;9.43;;;;;;;4.78;100.00;101065.88;6250452;22;20036;-89
2023/12/14 03:29:21;;;;;;;19.98;9.45;;;;;;;4.76;100.00;101059.00;6250930;22;20030;-89
2023/12/14 03:31:50;;;;;;;19.15;10.02;;;;;;;4.70;100.00;101064.03;6250534;22;20019;-89
2023/12/14 03:34:18;;;;;;;21.77;10.18;;;;;;;4.75;100.00;101071.59;6277940;22;20020;-90
2023/12/14 03:36:44;;;;;;;18.67;9.67;;;;;;;4.70;100.00;101061.34;6225117;22;20012;-89
2023/12/14 03:39:14;;;;;;;20.02;9.80;;;;;;;4.72;100.00;101069.25;6277629;22;20011;-89
2023/12/14 03:41:42;;;;;;;18.50;10.13;;;;;;;4.72;100.00;101080.88;6250438;22;20014;-89
2023/12/14 03:44:07;;;;;;;17.00;9.75;;;;;;;4.69;100.00;101085.72;6250872;22;19999;-89
2023/12/14 03:46:36;;;;;;;20.20;10.57;;;;;;;4.69;100.00;101083.03;6277647;22;20030;-89
2023/12/14 03:49:04;;;;;;;18.13;10.17;;;;;;;4.68;100.00;101092.09;6250454;22;20007;-88
2023/12/14 03:51:30;;;;;;;17.90;10.13;;;;;;;4.66;100.00;101089.59;6250327;22;20008;-88
2023/12/14 03:54:12;;;;;;;18.85;10.63;;;;;;;4.66;100.00;101089.59;6251328;22;20085;-88
2023/12/14 03:56:38;;;;;;;18.27;10.27;;;;;;;4.66;100.00;101092.28;6252123;22;20093;-88
2023/12/14 03:59:08;;;;;;;18.80;10.17;;;;;;;4.68;100.00;101100.16;6277526;22;20003;-89
2023/12/14 04:01:36;;;;;;;18.23;10.10;;;;;;;4.69;100.00;101107.22;6250307;22;20035;-89
2023/12/14 04:04:11;;;;;;;20.03;10.07;;;;;;;4.70;100.00;101111.59;6250366;22;20058;-88
2023/12/14 04:06:39;;;;;;;21.77;10.60;;;;;;;4.67;100.00;101109.25;6251217;22;20007;-89
2023/12/14 04:09:07;;;;;;;19.67;10.48;;;;;;;4.71;100.00;101114.13;6275779;22;20057;-89
2023/12/14 04:11:33;;;;;;;18.35;9.95;;;;;;;4.68;100.00;101108.22;6277398;22;20000;-89
2023/12/14 04:14:09;;;;;;;21.27;10.10;;;;;;;4.70;100.00;101104.38;6250266;22;20036;-89
2023/12/14 04:16:37;;;;;;;19.90;10.57;;;;;;;4.74;100.00;101104.88;6277982;22;20026;-89
2023/12/14 04:19:04;;;;;;;19.55;10.40;;;;;;;4.73;100.00;101105.88;6250151;22;20004;-89
2023/12/14 04:21:29;;;;;;;19.60;10.47;;;;;;;4.73;100.00;101114.78;6277351;22;20004;-89
2023/12/14 04:23:55;;;;;;;16.35;9.57;;;;;;;4.73;100.00;101113.94;6250885;22;20103;-89
2023/12/14 04:26:20;;;;;;;16.57;9.43;;;;;;;4.73;100.00;101119.31;6249800;22;19999;-89
2023/12/14 04:28:53;;;;;;;17.60;9.73;;;;;;;4.72;100.00;101123.00;6250239;22;20012;-89
2023/12/14 04:31:28;;;;;;;18.25;9.50;;;;;;;4.78;100.00;101134.94;6250946;22;20011;-89
2023/12/14 04:34:01;;;;;;;17.67;9.82;;;;;;;4.76;100.00;101148.56;6244928;23;20032;-89
2023/12/14 04:36:28;;;;;;;17.38;9.23;;;;;;;4.72;100.00;101142.69;6220693;23;20046;-89
2023/12/14 04:38:59;;;;;;;17.27;10.05;;;;;;;4.72;100.00;101150.75;6221582;23;20365;-89
2023/12/14 04:41:26;;;;;;;16.60;9.27;;;;;;;4.74;100.00;101156.78;6197005;23;20038;-89
2023/12/14 04:43:59;;;;;;;17.40;9.63;;;;;;;4.78;100.00;101176.09;6219726;23;20016;-89
2023/12/14 04:46:27;;;;;;;16.35;9.07;;;;;;;4.73;100.00;101171.22;6195030;23;20039;-89
2023/12/14 04:48:52;;;;;;;18.48;9.65;;;;;;;4.77;100.00;101185.19;6220086;23;20023;-89
2023/12/14 04:51:22;;;;;;;17.90;10.32;;;;;;;4.75;100.00;101187.19;6219779;23;20011;-88
2023/12/14 04:53:50;;;;;;;18.27;9.60;;;;;;;4.75;100.00;101189.88;6220375;23;20066;-89
2023/12/14 04:56:16;;;;;;;16.37;9.87;;;;;;;4.73;100.00;101195.41;6245161;23;20070;-88
2023/12/14 04:58:41;;;;;;;19.40;10.20;;;;;;;4.70;100.00;101184.19;6219652;23;20016;-88
2023/12/14 05:01:10;;;;;;;20.87;10.30;;;;;;;4.74;100.00;101189.03;6219521;23;20035;-89
2023/12/14 05:03:36;;;;;;;18.92;10.15;;;;;;;4.72;100.00;101201.81;6219529;23;20055;-89
2023/12/14 05:06:02;;;;;;;19.20;10.35;;;;;;;4.71;100.00;101210.03;6219186;23;20030;-89
2023/12/14 05:08:34;;;;;;;19.50;10.77;;;;;;;4.74;100.00;101217.78;6246087;23;20438;-88
2023/12/14 05:11:15;;;;;;;;;;;;;;;;;;;;;
2023/12/14 05:13:46;;;;;;;18.63;10.75;;;;;;;4.77;100.00;101230.88;6246695;23;20075;-89
2023/12/14 05:16:33;;;;;;;17.80;10.45;;;;;;;4.81;100.00;101231.38;6220801;23;20012;-89
2023/12/14 05:25:48;;;;;;;20.63;10.02;;;;;;;4.81;100.00;101251.03;6154097;23;20040;-89
2023/12/14 05:28:16;;;;;;;19.13;10.50;;;;;;;4.85;100.00;101255.06;6220791;23;20093;-88
2023/12/14 05:30:44;;;;;;;19.23;10.93;;;;;;;4.82;100.00;101259.97;6195372;23;20035;-89
2023/12/14 05:33:28;;;;;;;19.07;10.53;;;;;;;4.85;100.00;101260.44;6227189;23;20339;-89
2023/12/14 05:35:56;;;;;;;19.90;11.02;;;;;;;4.84;100.00;101277.59;6221628;23;20062;-89
2023/12/14 05:38:24;;;;;;;20.95;10.57;;;;;;;4.80;100.00;101275.41;6196384;23;20072;-89
2023/12/14 05:40:52;;;;;;;23.42;11.00;;;;;;;4.80;100.00;101281.63;6220825;23;20312;-89
2023/12/14 05:43:27;;;;;;;19.90;10.38;;;;;;;4.81;100.00;101285.97;6220757;23;20008;-89
2023/12/14 05:45:56;;;;;;;18.30;10.47;;;;;;;4.78;100.00;101291.69;6223549;23;20032;-89
2023/12/14 05:48:26;;;;;;;21.27;10.30;;;;;;;4.79;100.00;101309.50;6221333;23;20020;-89
2023/12/14 05:51:01;;;;;;;15.85;9.55;;;;;;;4.78;100.00;101310.50;6221893;23;20130;-89
2023/12/14 05:53:31;;;;;;;18.75;10.73;;;;;;;4.80;100.00;101321.97;6197608;23;20004;-90
2023/12/14 05:55:57;;;;;;;20.63;10.02;;;;;;;4.82;100.00;101327.16;6247808;23;20004;-89
2023/12/14 05:58:25;;;;;;;18.57;9.73;;;;;;;4.85;100.00;101332.22;6220706;23;20315;-90
2023/12/14 06:00:53;;;;;;;19.13;10.07;;;;;;;4.84;100.00;101335.91;6246647;23;20322;-89
2023/12/14 06:03:18;;;;;;;17.85;10.02;;;;;;;4.87;100.00;101343.63;6221133;23;20004;-89
2023/12/14 06:05:44;;;;;;;17.95;10.38;;;;;;;4.85;100.00;101337.59;6221030;23;20059;-89
2023/12/14 06:08:16;;;;;;;17.40;10.07;;;;;;;4.85;100.00;101335.72;6247976;23;20043;-89
2023/12/14 06:10:44;;;;;;;16.83;9.80;;;;;;;4.84;100.00;101333.22;6221368;23;20142;-89
2023/12/14 06:13:09;;;;;;;16.40;10.27;;;;;;;4.85;100.00;101338.41;6247682;23;20008;-89
2023/12/14 06:15:42;;;;;;;18.63;10.10;;;;;;;4.88;100.00;101339.94;6248397;23;20318;-89
2023/12/14 06:18:08;;;;;;;18.92;10.73;;;;;;;4.95;100.00;101350.91;6221230;23;20423;-89
2023/12/14 06:20:40;;;;;;;18.40;10.23;;;;;;;4.88;100.00;101343.47;6221775;23;20066;-87
2023/12/14 06:23:09;;;;;;;17.05;9.82;;;;;;;4.88;100.00;101353.38;6196830;23;20004;-89
2023/12/14 06:25:34;;;;;;;16.35;9.93;;;;;;;4.92;100.00;101363.66;6220867;23;20038;-87
2023/12/14 06:28:03;;;;;;;16.43;10.10;;;;;;;4.95;100.00;101367.03;6196436;23;20016;-87
2023/12/14 06:30:28;;;;;;;17.75;9.65;;;;;;;4.94;100.00;101374.22;6246201;23;20010;-87
2023/12/14 06:32:59;;;;;;;15.73;9.90;;;;;;;4.96;100.00;101383.00;6221205;23;20377;-86
2023/12/14 06:35:27;;;;;;;16.02;9.43;;;;;;;4.92;100.00;101387.03;6171896;23;20015;-87
2023/12/14 06:37:52;;;;;;;16.88;9.40;;;;;;;4.94;100.00;101386.84;6220547;23;20442;-87
2023/12/14 06:40:20;;;;;;;17.10;10.20;;;;;;;4.95;100.00;101391.22;6220726;23;20035;-87
2023/12/14 06:42:51;;;;;;;16.95;9.93;;;;;;;4.90;100.00;101383.63;6247351;23;20008;-87
2023/12/14 06:45:16;;;;;;;17.50;10.63;;;;;;;4.90;100.00;101389.00;6221717;23;20319;-86
2023/12/14 06:47:43;;;;;;;17.05;10.00;;;;;;;4.94;100.00;101394.91;6247617;23;20000;-87
2023/12/14 06:50:09;;;;;;;20.08;11.40;;;;;;;4.92;100.00;101403.97;6195612;23;20019;-87
2023/12/14 06:52:35;;;;;;;22.30;11.60;;;;;;;4.89;100.00;101404.31;6246037;23;20431;-86
2023/12/14 06:55:00;;;;;;;22.77;11.15;;;;;;;4.85;100.00;101402.94;6221123;23;20000;-87
2023/12/14 06:57:31;;;;;;;25.33;11.97;;;;;;;4.77;100.00;101408.31;6221005;23;20296;-87
2023/12/14 06:59:56;;;;;;;29.55;12.63;;;;;;;4.73;100.00;101410.47;6247452;23;20034;-87
2023/12/14 07:02:24;;;;;;;28.27;13.00;;;;;;;4.73;100.00;101425.78;6220842;23;20040;-87
2023/12/14 07:04:49;;;;;;;23.58;12.70;;;;;;;4.67;100.00;101427.25;6195807;23;20453;-88
2023/12/14 07:07:25;;;;;;;25.67;12.23;;;;;;;4.69;100.00;101438.69;6194905;23;20016;-88
2023/12/14 07:09:51;;;;;;;26.65;11.32;;;;;;;4.65;100.00;101436.50;6220232;23;20335;-87
2023/12/14 07:12:16;;;;;;;33.20;13.03;;;;;;;4.62;100.00;101435.00;6219336;23;20007;-87
2023/12/14 07:14:42;;;;;;;27.23;12.75;;;;;;;4.65;100.00;101448.09;6247005;23;20086;-86
2023/12/14 07:17:12;;;;;;;26.37;12.43;;;;;;;4.66;100.00;101455.16;6220055;23;20433;-87
2023/12/14 07:19:40;;;;;;;24.20;11.93;;;;;;;4.62;100.00;101461.88;6220888;23;20012;-87
2023/12/14 07:22:06;;;;;;;24.55;11.43;;;;;;;4.56;100.00;101468.72;6219578;23;20063;-86
2023/12/14 07:24:37;;;;;;;22.77;11.53;;;;;;;4.60;100.00;101474.59;6219028;23;20431;-86
2023/12/14 07:27:03;;;;;;;23.75;11.60;;;;;;;4.56;100.00;101475.94;6220472;23;20079;-86
2023/12/14 07:29:29;;;;;;;27.38;12.25;;;;;;;4.53;100.00;101482.47;6219871;23;20082;-86
2023/12/14 07:31:54;;;;;;;24.80;11.73;;;;;;;4.59;100.00;101494.41;6220061;23;20039;-87
2023/12/14 07:34:22;;;;;;;25.17;11.73;;;;;;;4.53;100.00;101493.25;6219225;23;20024;-87
2023/12/14 07:36:48;;;;;;;26.70;11.02;;;;;;;4.57;100.00;101499.13;6219778;23;20023;-86
2023/12/14 07:39:13;;;;;;;21.42;10.00;;;;;;;4.52;100.00;101491.53;6220877;23;20012;-87
2023/12/14 07:41:39;;;;;;;24.00;10.63;;;;;;;4.54;100.00;101496.75;6194749;23;20016;-87
2023/12/14 07:44:04;;;;;;;21.97;10.27;;;;;;;4.48;100.00;101490.16;6220889;23;20027;-87
2023/12/14 07:46:39;;;;;;;24.23;10.93;;;;;;;4.48;100.00;101502.78;6246237;23;20373;-87
2023/12/14 07:49:07;;;;;;;24.70;10.27;;;;;;;4.48;100.00;101510.84;6219513;23;20070;-87
2023/12/14 07:51:35;;;;;;;20.00;9.57;;;;;;;4.43;100.00;101511.31;6218464;23;20087;-87
2023/12/14 07:54:03;;;;;;;21.35;9.25;;;;;;;4.42;100.00;101516.84;6219713;23;20008;-86
2023/12/14 07:56:29;;;;;;;26.42;10.32;;;;;;;4.44;100.00;101523.72;6220216;23;20030;-87
2023/12/14 07:58:54;;;;;;;20.73;9.50;;;;;;;4.46;100.00;101528.94;6223254;23;20091;-88
2023/12/14 08:01:20;;;;;;;20.88;8.90;;;;;;;4.49;100.00;101534.88;6221007;23;20007;-87
2023/12/14 08:03:50;;;;;;;19.63;9.13;;;;;;;4.50;100.00;101541.94;6220526;23;20018;-87
2023/12/14 08:06:16;;;;;;;19.77;8.65;;;;;;;4.50;100.00;101541.94;6219824;23;20020;-87
2023/12/14 08:08:42;;;;;;;21.87;8.50;;;;;;;4.50;100.00;101551.81;6219742;23;20016;-87
2023/12/14 08:11:07;;;;;;;21.27;8.95;;;;;;;4.50;100.00;101546.44;6220848;23;20066;-87
2023/12/14 08:13:38;;;;;;;17.90;8.83;;;;;;;4.51;100.00;101542.75;6195151;23;20031;-86
2023/12/14 08:16:07;;;;;;;15.85;7.88;;;;;;;4.48;100.00;101543.91;6244594;23;20004;-87
2023/12/14 08:18:32;;;;;;;19.98;8.75;;;;;;;4.49;100.00;101550.16;6246255;23;20485;-86
2023/12/14 08:20:58;;;;;;;18.37;8.90;;;;;;;4.49;100.00;101552.84;6220387;23;20034;-86
2023/12/14 08:23:27;;;;;;;16.00;8.43;;;;;;;4.52;100.00;101569.47;6247259;23;20043;-86
2023/12/14 08:25:56;;;;;;;16.55;8.25;;;;;;;4.50;100.00;101571.50;6247547;23;20004;-86
2023/12/14 08:28:22;;;;;;;15.82;7.90;;;;;;;4.53;100.00;101578.38;6219928;23;20004;-86
2023/12/14 08:30:50;;;;;;;15.63;7.93;;;;;;;4.56;100.00;101578.06;6244577;23;20062;-86
2023/12/14 08:33:18;;;;;;;17.63;8.52;;;;;;;4.56;100.00;101584.28;6218978;23;20028;-86
2023/12/14 08:35:44;;;;;;;15.80;8.50;;;;;;;4.60;100.00;101595.56;6219817;23;20445;-86
2023/12/14 08:38:12;;;;;;;14.63;8.77;;;;;;;4.56;100.00;101591.50;6220128;23;20004;-87
2023/12/14 08:40:39;;;;;;;15.82;7.95;;;;;;;4.59;100.00;101604.63;6219731;23;20330;-86
2023/12/14 08:43:07;;;;;;;15.90;8.40;;;;;;;4.55;100.00;101605.94;6219379;23;20011;-86
2023/12/14 08:45:32;;;;;;;12.88;7.78;;;;;;;4.53;100.00;101613.31;6246274;23;20008;-86
2023/12/14 08:48:00;;;;;;;16.03;8.80;;;;;;;4.49;100.00;101623.53;6246009;23;20008;-86
2023/12/14 08:50:30;;;;;;;14.43;8.27;;;;;;;4.52;100.00;101630.47;6219619;23;20012;-86
2023/12/14 08:52:59;;;;;;;13.70;8.15;;;;;;;4.50;100.00;101624.38;6247372;23;20110;-86
2023/12/14 08:55:25;;;;;;;14.80;7.88;;;;;;;4.49;100.00;101617.34;6194235;23;20008;-86
2023/12/14 08:57:50;;;;;;;12.05;7.57;;;;;;;4.52;100.00;101612.47;6219941;23;20008;-86
2023/12/14 09:00:17;;;;;;;13.20;8.10;;;;;;;4.57;100.00;101622.75;6219603;23;20394;-87
2023/12/14 09:02:45;;;;;;;13.82;7.57;;;;;;;4.59;100.00;101623.44;6246913;23;20000;-86
2023/12/14 09:05:15;;;;;;;15.48;8.77;;;;;;;4.66;100.00;101624.50;6221518;23;20012;-86
2023/12/14 09:07:44;;;;;;;14.57;7.93;;;;;;;4.72;100.00;101634.63;6221344;23;20020;-86
2023/12/14 09:10:12;;;;;;;12.77;7.68;;;;;;;4.71;100.00;101643.69;6248084;23;20014;-86
2023/12/14 09:12:40;;;;;;;12.30;7.63;;;;;;;4.74;100.00;101648.75;6222743;23;20008;-86
2023/12/14 09:15:15;;;;;;;13.13;7.82;;;;;;;4.78;100.00;101653.81;6221338;23;20055;-86
2023/12/14 09:17:43;;;;;;;12.10;7.43;;;;;;;4.76;100.00;101655.84;6221224;23;20013;-86
2023/12/14 09:20:11;;;;;;;10.57;7.13;;;;;;;4.82;100.00;101668.63;6247876;23;20075;-86
2023/12/14 09:22:36;;;;;;;11.95;6.95;;;;;;;4.81;100.00;101681.22;6197001;23;20512;-86
2023/12/14 09:25:11;;;;;;;10.75;7.28;;;;;;;4.79;100.00;101669.78;6220528;23;20012;-86
2023/12/14 09:27:36;;;;;;;11.90;7.65;;;;;;;4.81;100.00;101675.84;6222317;23;20088;-86
2023/12/14 09:30:04;;;;;;;13.75;7.82;;;;;;;4.89;100.00;101685.84;6247603;23;20430;-86
2023/12/14 09:32:33;;;;;;;13.80;7.20;;;;;;;4.91;100.00;101694.56;6202216;22;20331;-86
2023/12/14 09:35:03;;;;;;;10.10;6.90;;;;;;;4.89;100.00;101702.81;6226744;22;20023;-86
2023/12/14 09:37:28;;;;;;;11.57;7.25;;;;;;;4.92;100.00;101701.66;6277787;22;20031;-86
2023/12/14 09:39:57;;;;;;;15.57;7.97;;;;;;;4.93;100.00;101708.69;6251358;22;20330;-86
2023/12/14 09:42:25;;;;;;;13.60;7.30;;;;;;;4.97;100.00;101718.16;6251548;22;20003;-87
2023/12/14 09:44:59;;;;;;;11.13;6.82;;;;;;;5.00;100.00;101725.06;6278919;22;20489;-87
2023/12/14 09:47:26;;;;;;;11.15;7.13;;;;;;;4.99;100.00;101715.31;6251640;22;20035;-87
2023/12/14 09:49:52;;;;;;;11.68;6.72;;;;;;;5.02;100.00;101725.75;6276647;22;19999;-87
2023/12/14 09:52:18;;;;;;;13.40;6.75;;;;;;;5.04;100.00;101729.13;6226191;22;20016;-86
2023/12/14 09:54:46;;;;;;;10.23;6.90;;;;;;;5.06;100.00;101738.75;6251555;22;20038;-86
2023/12/14 09:57:11;;;;;;;10.82;6.72;;;;;;;5.01;100.00;101732.97;6251553;22;20035;-86
2023/12/14 09:59:37;;;;;;;10.10;6.97;;;;;;;5.01;100.00;101738.34;6279391;22;20004;-86
2023/12/14 10:02:23;;;;;;;;;;;;;;;;;;;;;
2023/12/14 10:04:49;;;;;;;13.97;6.60;;;;;;;4.97;100.00;101745.03;6279331;22;20104;-86
2023/12/14 10:07:24;;;;;;;12.48;7.05;;;;;;;4.96;100.00;101759.53;6251451;22;20187;-86
2023/12/14 10:09:55;;;;;;;14.30;7.27;;;;;;;4.92;100.00;101760.81;6278474;22;20026;-86
2023/12/14 10:12:23;;;;;;;11.27;7.10;;;;;;;4.88;100.00;101762.97;6251146;22;20090;-87
2023/12/14 10:15:03;;;;;;;13.93;7.82;;;;;;;4.90;100.00;101771.75;6225475;22;20012;-86
2023/12/14 10:17:52;;;;;;;15.23;7.82;;;;;;;4.90;100.00;101774.44;6251561;22;20035;-86
2023/12/14 10:20:22;;;;;;;11.50;7.05;;;;;;;4.87;100.00;101769.34;6230811;22;20008;-86
2023/12/14 10:22:54;;;;;;;10.67;6.77;;;;;;;4.85;100.00;101765.13;6251089;22;20007;-86
2023/12/14 10:25:22;;;;;;;11.90;6.82;;;;;;;4.88;100.00;101775.56;6251495;22;20081;-86
2023/12/14 10:27:53;;;;;;;10.60;6.30;;;;;;;4.90;100.00;101778.94;6251142;22;20090;-86
2023/12/14 10:30:28;;;;;;;11.10;6.72;;;;;;;4.95;100.00;101778.50;6225953;22;20015;-87
2023/12/14 10:32:54;;;;;;;9.80;6.85;;;;;;;5.04;100.00;101780.25;6250267;22;20097;-87
2023/12/14 10:35:24;;;;;;;12.17;6.80;;;;;;;5.06;100.00;101780.91;6252030;22;20350;-86
2023/12/14 10:37:55;;;;;;;12.77;6.68;;;;;;;5.08;100.00;101782.47;6251006;22;20019;-86
2023/12/14 10:40:23;;;;;;;12.27;6.85;;;;;;;5.14;100.00;101785.50;6278037;22;20126;-87
2023/12/14 10:42:50;;;;;;;12.20;6.53;;;;;;;5.14;100.00;101796.28;6251359;22;20011;-87
2023/12/14 10:45:18;;;;;;;13.75;7.30;;;;;;;5.05;100.00;101784.63;6251013;22;20112;-87
2023/12/14 10:48:03;;;;;;;19.48;7.50;;;;;;;5.03;100.00;101792.84;6250781;22;20008;-86
2023/12/14 10:57:13;;;;;;;10.18;5.90;;;;;;;5.24;100.00;101810.47;6170797;22;20380;-87
2023/12/14 10:59:49;;;;;;;9.93;6.13;;;;;;;5.23;100.00;101798.88;6225926;22;20016;-87
2023/12/14 11:02:15;;;;;;;13.30;5.75;;;;;;;5.32;100.00;101813.25;6277348;22;20003;-86
2023/12/14 11:05:03;;;;;;;14.37;6.13;;;;;;;5.45;100.00;101802.06;6250732;22;20083;-87
2023/12/14 11:07:53;;;;;;;9.95;5.70;;;;;;;5.60;100.00;101810.41;6250023;22;20094;-87
2023/12/14 11:10:39;;;;;;;11.10;5.78;;;;;;;5.60;100.00;101800.47;6277954;22;20413;-86
2023/12/14 11:13:13;;;;;;;13.67;5.97;;;;;;;5.68;100.00;101801.53;6277432;22;20011;-87
2023/12/14 11:15:40;;;;;;;9.32;5.20;;;;;;;5.68;100.00;101812.28;6251214;22;20048;-86
2023/12/14 11:18:14;;;;;;;11.52;6.07;;;;;;;5.79;100.00;101826.34;6251211;22;20035;-87
2023/12/14 11:20:46;;;;;;;10.82;6.05;;;;;;;5.90;100.00;101832.44;6250491;22;20011;-87
2023/12/14 11:23:30;;;;;;;10.15;6.10;;;;;;;5.88;100.00;101821.84;6277227;22;20034;-86
2023/12/14 11:26:06;;;;;;;11.80;5.13;;;;;;;5.92;100.00;101839.38;6250708;22;20004;-86
2023/12/14 11:28:36;;;;;;;9.88;6.10;;;;;;;6.03;100.00;101840.97;6250409;22;20003;-86
2023/12/14 11:31:06;;;;;;;10.90;5.20;;;;;;;6.19;100.00;101845.59;6250645;22;20018;-86
2023/12/14 11:33:35;;;;;;;9.07;5.38;;;;;;;6.18;100.00;101848.44;6250552;22;20020;-88
2023/12/14 11:36:03;;;;;;;8.52;5.32;;;;;;;6.22;100.00;101855.22;6251914;22;20434;-87
2023/12/14 11:38:29;;;;;;;9.23;5.40;;;;;;;6.24;100.00;101855.88;6226270;22;20122;-87
2023/12/14 11:40:58;;;;;;;9.57;5.60;;;;;;;6.28;100.00;101851.84;6201025;22;20061;-88
2023/12/14 11:43:38;;;;;;;9.38;5.25;;;;;;;6.28;100.00;101849.16;6250800;22;20010;-89
2023/12/14 11:46:06;;;;;;;8.43;5.25;;;;;;;6.33;100.00;101857.59;6277112;22;19996;-88
2023/12/14 11:48:33;;;;;;;10.52;6.15;;;;;;;6.41;100.00;101843.31;6250172;22;20018;-87